Time;durP1;ratioP1;P1;durP2;ratioP2;P2;SDS_P1;SDS_P2;PMS_P1;PMS_P2;Temp;Humidity;BMP_temperature;BMP_pressure;BME280_temperature;BME280_humidity;BME280_pressure;Samples;Min_cycle;Max_cycle;Signal;HPM_P1;HPM_P2
2023/03/13 00:01:28;;;;;;;;;6.00;6.00;;;;;14.06;83.25;100317.72;5034655;28;47748;-74
2023/03/13 00:03:54;;;;;;;;;3.67;2.67;;;;;14.08;83.23;100309.53;5017498;28;46234;-75
2023/03/13 00:06:21;;;;;;;;;4.67;3.33;;;;;13.97;83.09;100284.84;5023396;28;45451;-76
2023/03/13 00:08:46;;;;;;;;;11.00;10.00;;;;;14.00;83.01;100279.16;5029478;28;45357;-75
2023/03/13 00:11:14;;;;;;;;;3.67;3.67;;;;;13.91;83.17;100276.72;5020545;28;46082;-74
2023/03/13 00:13:41;;;;;;;;;3.33;3.33;;;;;14.04;83.31;100294.84;5039628;28;45395;-74
2023/03/13 00:16:12;;;;;;;;;5.67;4.00;;;;;14.09;83.42;100295.97;5037764;28;45365;-74
2023/03/13 00:18:38;;;;;;;;;4.33;4.00;;;;;13.88;83.29;100255.69;5039848;28;45518;-74
2023/03/13 00:21:08;;;;;;;;;3.33;3.00;;;;;13.40;82.91;100178.34;5038603;28;46700;-73
2023/03/13 00:23:35;;;;;;;;;6.00;3.33;;;;;13.93;82.83;100262.16;5039586;28;45479;-75
2023/03/13 00:26:03;;;;;;;;;2.00;2.00;;;;;14.11;82.97;100295.78;5039036;28;45385;-75
2023/03/13 00:28:31;;;;;;;;;4.00;4.00;;;;;14.00;82.41;100259.59;5040402;28;45491;-74
2023/03/13 00:31:05;;;;;;;;;5.67;3.67;;;;;14.27;82.56;100288.50;5038436;28;47254;-74
2023/03/13 00:33:35;;;;;;;;;3.33;3.00;;;;;14.16;82.22;100280.88;5038480;28;45534;-74
2023/03/13 00:36:02;;;;;;;;;2.00;2.00;;;;;14.24;82.48;100272.81;5038458;28;45443;-72
2023/03/13 00:38:28;;;;;;;;;2.33;2.00;;;;;13.58;82.69;100167.38;5040013;28;45482;-75
2023/03/13 00:41:05;;;;;;;;;3.00;2.00;;;;;14.27;81.82;100274.28;5039648;28;46469;-75
2023/03/13 00:43:32;;;;;;;;;3.00;3.00;;;;;14.23;81.90;100268.47;5040013;28;45314;-74
2023/03/13 00:45:57;;;;;;;;;3.00;2.00;;;;;14.23;82.04;100268.47;5039962;28;45214;-72
2023/03/13 00:48:23;;;;;;;;;4.00;2.67;;;;;14.28;82.05;100292.81;5041007;28;45463;-75
2023/03/13 00:50:49;;;;;;;;;2.67;2.00;;;;;14.28;82.09;100266.09;5039591;28;46382;-75
2023/03/13 00:53:15;;;;;;;;;3.67;3.00;;;;;14.28;81.87;100281.31;5039488;28;45246;-74
2023/03/13 00:55:54;;;;;;;;;3.00;3.00;;;;;14.25;81.85;100263.78;5039476;28;45594;-74
2023/03/13 00:58:20;;;;;;;;;3.67;1.33;;;;;13.72;82.01;100183.66;5038268;28;45608;-73
2023/03/13 01:00:45;;;;;;;;;4.00;3.00;;;;;14.27;82.37;100285.00;5039171;28;46006;-75
2023/03/13 01:03:10;;;;;;;;;4.00;3.00;;;;;14.14;81.84;100256.16;5038736;28;45451;-74
2023/03/13 01:05:36;;;;;;;;;4.00;4.00;;;;;13.92;81.47;100228.44;5036812;28;45399;-72
2023/03/13 01:08:01;;;;;;;;;4.00;4.00;;;;;13.34;81.56;100123.00;5037647;28;45487;-75
2023/03/13 01:10:26;;;;;;;;;3.00;3.00;;;;;14.24;81.78;100262.13;5037978;28;45622;-74
2023/03/13 01:12:52;;;;;;;;;2.00;2.00;;;;;14.23;81.35;100252.44;5037038;28;45544;-73
2023/03/13 01:15:18;;;;;;;;;1.67;1.67;;;;;14.06;80.96;100224.16;5037019;28;45401;-72
2023/03/13 01:17:44;;;;;;;;;3.00;3.00;;;;;13.85;80.71;100163.38;5038115;28;45574;-76
2023/03/13 01:20:10;;;;;;;;;3.67;3.00;;;;;14.23;81.46;100223.03;5037727;28;47953;-74
2023/03/13 01:22:36;;;;;;;;;3.00;3.00;;;;;13.95;80.80;100179.13;5039200;28;45362;-74
2023/03/13 01:25:01;;;;;;;;;3.67;3.33;;;;;14.05;80.65;100198.44;5039158;28;45513;-74
2023/03/13 01:27:28;;;;;;;;;4.00;3.00;;;;;14.24;80.87;100230.03;5039348;28;45392;-74
2023/03/13 01:29:53;;;;;;;;;3.00;3.00;;;;;13.87;80.30;100152.50;5037565;28;47887;-73
2023/03/13 01:32:18;;;;;;;;;4.00;2.67;;;;;13.41;79.96;100069.69;5038222;28;62459;-77
2023/03/13 01:34:43;;;;;;;;;5.33;5.00;;;;;14.24;80.08;100223.84;5039122;28;45238;-71
2023/03/13 01:37:09;;;;;;;;;6.67;6.00;;;;;14.15;80.37;100211.56;5038051;28;45515;-75
2023/03/13 01:39:34;;;;;;;;;3.00;2.00;;;;;14.23;80.01;100222.19;5038449;28;55254;-74
2023/03/13 01:41:59;;;;;;;;;3.33;3.33;;;;;13.49;79.88;100115.06;5038732;28;46175;-74
2023/03/13 01:44:26;;;;;;;;;3.33;3.33;;;;;14.16;80.00;100231.94;5038826;28;45483;-74
2023/03/13 01:46:51;;;;;;;;;4.33;4.33;;;;;14.06;79.52;100212.66;5039380;28;45218;-74
2023/03/13 01:49:25;;;;;;;;;4.33;4.33;;;;;13.12;79.68;100053.53;5038513;28;46144;-75
2023/03/13 01:51:52;;;;;;;;;4.00;3.00;;;;;14.25;79.56;100234.38;5037414;28;45374;-74
2023/03/13 01:54:46;;;;;;;;;6.00;6.00;;;;;14.24;79.22;100219.34;5038653;28;45321;-73
2023/03/13 01:57:32;;;;;;;;;6.33;4.00;;;;;14.23;79.19;100193.63;5038439;28;45643;-74
2023/03/13 02:00:01;;;;;;;;;5.00;5.00;;;;;14.05;79.04;100168.22;5038609;28;45736;-74
2023/03/13 02:02:28;;;;;;;;;5.67;5.67;;;;;14.13;78.93;100179.66;5038452;28;45246;-74
2023/03/13 02:04:58;;;;;;;;;6.67;4.00;;;;;14.27;78.81;100189.56;5037325;28;45459;-73
2023/03/13 02:07:33;;;;;;;;;5.33;4.00;;;;;14.25;78.83;100196.94;5038648;28;45329;-74
2023/03/13 02:10:00;;;;;;;;;5.67;5.67;;;;;14.26;78.67;100203.94;5038294;28;45339;-74
2023/03/13 02:12:32;;;;;;;;;4.00;4.00;;;;;13.80;78.04;100132.81;5038101;28;45408;-74
2023/03/13 02:15:01;;;;;;;;;4.33;4.33;;;;;14.18;78.22;100182.59;5038545;28;45402;-74
2023/03/13 02:17:28;;;;;;;;;6.00;6.00;;;;;13.24;78.06;100004.94;5037148;28;45527;-74
2023/03/13 02:19:54;;;;;;;;;6.00;4.00;;;;;14.22;78.05;100164.38;5038010;28;45724;-74
2023/03/13 02:22:42;;;;;;;;;4.67;4.67;;;;;14.19;77.88;100162.88;5037040;28;45309;-76
2023/03/13 02:25:23;;;;;;;;;6.33;5.33;;;;;11.69;77.84;99765.16;5038045;28;45277;-74
2023/03/13 02:28:14;;;;;;;;;6.33;4.67;;;;;14.29;77.89;100166.13;5020609;28;45329;-74
2023/03/13 02:30:42;;;;;;;;;5.00;5.00;;;;;13.88;77.67;100098.03;5037323;28;46135;-74
2023/03/13 02:33:07;;;;;;;;;4.00;3.67;;;;;13.06;77.35;99967.84;5037901;28;45480;-74
2023/03/13 02:35:34;;;;;;;;;6.33;5.00;;;;;13.84;77.85;100078.88;5038823;28;45232;-75
2023/03/13 02:38:04;;;;;;;;;5.33;4.00;;;;;13.92;77.64;100102.00;5039290;28;45364;-73
2023/03/13 02:40:34;;;;;;;;;6.33;5.00;;;;;14.24;77.61;100159.69;5038013;28;46833;-74
2023/03/13 02:43:01;;;;;;;;;5.00;4.00;;;;;13.62;77.72;100045.84;5038083;28;45492;-74
2023/03/13 02:45:34;;;;;;;;;6.00;6.00;;;;;14.19;77.88;100143.34;5091475;27;45692;-74
2023/03/13 02:47:59;;;;;;;;;5.33;4.67;;;;;14.23;78.06;100150.00;5074203;27;45503;-74
2023/03/13 02:50:24;;;;;;;;;5.00;3.67;;;;;14.04;77.47;100102.41;5090032;27;45388;-73
2023/03/13 02:52:55;;;;;;;;;6.00;6.00;;;;;14.23;77.55;100140.13;5089921;27;45544;-74
2023/03/13 02:55:28;;;;;;;;;6.67;6.00;;;;;13.90;77.47;100079.97;5073990;28;46035;-74
2023/03/13 02:57:54;;;;;;;;;5.67;4.67;;;;;14.07;77.63;100107.38;5074003;28;45348;-74
2023/03/13 03:00:25;;;;;;;;;6.00;5.00;;;;;14.19;77.57;100128.13;5089659;27;45262;-74
2023/03/13 03:02:50;;;;;;;;;6.67;5.67;;;;;14.18;77.48;100121.13;5074423;28;45368;-74
2023/03/13 03:05:15;;;;;;;;;5.67;4.67;;;;;14.09;77.60;100098.16;5073799;27;45796;-74
2023/03/13 03:07:41;;;;;;;;;4.00;3.00;;;;;14.14;77.79;100109.13;5073810;28;45501;-74
2023/03/13 03:10:06;;;;;;;;;9.33;7.00;;;;;14.29;77.67;100133.22;5073956;27;45417;-74
2023/03/13 03:12:32;;;;;;;;;8.67;6.33;;;;;14.18;77.70;100113.09;5089735;27;45568;-74
2023/03/13 03:14:57;;;;;;;;;6.67;6.67;;;;;14.24;77.95;100124.94;5073885;28;47173;-72
2023/03/13 03:17:22;;;;;;;;;6.00;5.67;;;;;13.53;77.71;99996.16;5089610;27;46232;-72
2023/03/13 03:19:48;;;;;;;;;6.00;6.00;;;;;14.30;77.65;100124.19;5074107;28;45241;-74
2023/03/13 03:22:13;;;;;;;;;6.00;6.00;;;;;14.29;77.56;100115.34;5072478;28;45220;-73
2023/03/13 03:24:39;;;;;;;;;7.33;7.00;;;;;14.25;77.38;100116.72;5073707;28;47172;-74
2023/03/13 03:27:04;;;;;;;;;4.33;4.33;;;;;14.26;77.38;100118.38;5075423;28;45976;-73
2023/03/13 03:29:29;;;;;;;;;6.00;6.00;;;;;14.11;77.57;100092.63;5073661;27;45621;-74
2023/03/13 03:31:55;;;;;;;;;6.00;6.00;;;;;14.09;77.22;100095.50;5074079;28;45489;-74
2023/03/13 03:34:20;;;;;;;;;6.00;6.00;;;;;13.91;77.33;100052.25;5073261;28;45555;-74
2023/03/13 03:36:46;;;;;;;;;7.33;4.33;;;;;14.07;77.20;100081.50;5073643;28;45556;-72
2023/03/13 03:39:11;;;;;;;;;5.67;5.67;;;;;13.90;77.32;100064.78;5072277;28;45395;-74
2023/03/13 03:41:36;;;;;;;;;6.00;5.00;;;;;14.28;77.17;100132.41;5072459;28;45283;-73
2023/03/13 03:44:03;;;;;;;;;5.33;5.33;;;;;13.48;76.88;100001.25;5082990;27;46679;-74
2023/03/13 03:46:28;;;;;;;;;8.00;6.33;;;;;14.02;76.98;100088.41;5093956;27;45327;-73
2023/03/13 03:48:53;;;;;;;;;4.33;4.33;;;;;14.33;77.01;100134.50;5093761;27;45541;-74
2023/03/13 03:51:19;;;;;;;;;9.67;4.00;;;;;14.07;76.64;100092.19;5093861;27;45402;-74
2023/03/13 03:53:45;;;;;;;;;5.67;5.67;;;;;13.88;76.76;100068.66;5093405;27;46099;-73
2023/03/13 03:56:10;;;;;;;;;5.33;5.33;;;;;14.27;76.40;100119.22;5066267;28;46097;-74
2023/03/13 03:58:35;;;;;;;;;6.67;5.67;;;;;14.25;76.57;100116.72;5061810;28;45316;-75
2023/03/13 04:01:01;;;;;;;;;5.33;4.33;;;;;14.05;76.54;100077.34;5080404;28;45523;-73
2023/03/13 04:03:26;;;;;;;;;5.67;4.33;;;;;14.26;76.70;100110.34;5079530;28;45662;-74
2023/03/13 04:05:52;;;;;;;;;5.00;5.00;;;;;14.12;76.37;100079.09;5079723;28;45516;-75
2023/03/13 04:08:17;;;;;;;;;8.33;7.00;;;;;11.79;76.72;99711.69;5078513;28;45473;-74
2023/03/13 04:10:43;;;;;;;;;5.00;5.00;;;;;13.52;76.90;99999.03;5080079;28;45596;-74
2023/03/13 04:13:08;;;;;;;;;8.33;4.33;;;;;14.26;76.82;100125.56;5079624;28;46347;-74
2023/03/13 04:15:33;;;;;;;;;5.33;4.00;;;;;14.21;76.62;100111.91;5079617;28;45233;-72
2023/03/13 04:17:59;;;;;;;;;4.67;4.67;;;;;14.19;76.69;100098.72;5079716;28;45418;-74
2023/03/13 04:20:25;;;;;;;;;7.67;6.00;;;;;14.27;76.45;100117.38;5079757;28;45205;-73
2023/03/13 04:22:50;;;;;;;;;5.67;5.00;;;;;14.09;76.48;100074.13;5080289;28;45300;-73
2023/03/13 04:25:16;;;;;;;;;5.67;4.33;;;;;14.30;76.27;100103.63;5083205;28;45470;-74
2023/03/13 04:27:41;;;;;;;;;6.33;4.67;;;;;14.22;76.51;100090.34;5079999;28;45405;-75
2023/03/13 04:30:07;;;;;;;;;6.67;4.67;;;;;14.30;76.64;100097.44;5079762;28;45436;-74
2023/03/13 04:32:32;;;;;;;;;6.67;5.00;;;;;14.08;76.57;100061.75;5079485;28;46403;-74
2023/03/13 04:34:58;;;;;;;;;6.00;6.00;;;;;13.79;76.27;100013.63;5079834;28;45347;-73
2023/03/13 04:37:23;;;;;;;;;5.67;5.67;;;;;14.28;76.15;100089.63;5080090;28;45331;-73
2023/03/13 04:39:48;;;;;;;;;7.00;6.00;;;;;14.34;76.27;100103.25;5079581;28;45565;-74
2023/03/13 04:42:14;;;;;;;;;5.33;5.33;;;;;14.16;75.95;100069.69;5060825;28;47670;-73
2023/03/13 04:44:39;;;;;;;;;8.33;7.67;;;;;14.29;76.73;100096.63;5060663;28;45780;-75
2023/03/13 04:47:05;;;;;;;;;5.33;4.67;;;;;14.08;76.20;100072.44;5060931;28;45585;-74
2023/03/13 04:49:30;;;;;;;;;7.00;7.00;;;;;14.27;76.14;100087.97;5079248;28;45437;-74
2023/03/13 04:51:55;;;;;;;;;8.33;7.67;;;;;14.23;76.31;100081.31;5078947;28;46369;-74
2023/03/13 04:54:21;;;;;;;;;8.00;6.67;;;;;14.35;76.25;100107.59;5077452;28;46411;-73
2023/03/13 04:56:47;;;;;;;;;12.00;10.33;;;;;13.58;75.91;99985.78;5078767;28;45561;-73
2023/03/13 04:59:14;;;;;;;;;7.00;7.00;;;;;14.30;76.26;100103.63;5079118;28;45232;-72
2023/03/13 05:01:40;;;;;;;;;7.00;5.67;;;;;14.28;76.58;100108.34;5077317;28;47440;-74
2023/03/13 05:04:05;;;;;;;;;5.33;4.33;;;;;14.23;76.51;100099.22;5078965;28;45518;-72
2023/03/13 05:06:31;;;;;;;;;9.00;6.33;;;;;14.09;76.38;100068.75;5078874;28;45261;-73
2023/03/13 05:08:56;;;;;;;;;10.67;8.33;;;;;14.29;76.66;100111.84;5078512;28;45466;-74
2023/03/13 05:11:22;;;;;;;;;6.00;6.00;;;;;14.26;76.14;100105.00;5078436;28;49758;-74
2023/03/13 05:13:47;;;;;;;;;6.00;6.00;;;;;14.15;76.42;100084.06;5060245;28;45520;-74
2023/03/13 05:16:13;;;;;;;;;9.00;8.00;;;;;14.21;76.42;100088.66;5078846;28;45442;-73
2023/03/13 05:18:38;;;;;;;;;5.00;5.00;;;;;14.20;76.60;100076.31;5079063;28;45433;-75
2023/03/13 05:21:05;;;;;;;;;8.67;7.33;;;;;13.67;76.75;100016.75;5078780;28;46146;-74
2023/03/13 05:23:30;;;;;;;;;5.67;5.67;;;;;14.14;77.16;100098.44;5077209;28;45552;-74
2023/03/13 05:25:56;;;;;;;;;7.00;5.33;;;;;13.80;77.10;100047.34;5078545;28;45309;-75
2023/03/13 05:28:21;;;;;;;;;6.33;6.33;;;;;13.86;76.90;100055.47;5078765;28;45478;-75
2023/03/13 05:30:46;;;;;;;;;6.00;6.00;;;;;14.13;77.14;100082.59;5078114;28;46140;-73
2023/03/13 05:33:12;;;;;;;;;9.00;7.00;;;;;13.47;77.02;99962.19;5077788;28;63713;-74
2023/03/13 05:35:37;;;;;;;;;6.00;6.00;;;;;13.87;77.50;100056.31;5060118;28;45758;-74
2023/03/13 05:38:03;;;;;;;;;6.00;6.00;;;;;14.10;77.21;100081.13;5078451;28;45318;-74
2023/03/13 05:40:28;;;;;;;;;8.00;6.33;;;;;13.41;77.07;99952.22;5078056;28;45616;-74
2023/03/13 05:42:53;;;;;;;;;8.67;7.67;;;;;13.20;77.41;99944.06;5076545;28;45428;-74
2023/03/13 05:45:19;;;;;;;;;8.33;8.33;;;;;13.64;77.39;100019.78;5056272;28;45308;-75
2023/03/13 05:47:44;;;;;;;;;6.33;6.33;;;;;13.57;77.49;100010.81;5057903;28;45427;-74
2023/03/13 05:50:10;;;;;;;;;9.00;9.00;;;;;13.85;77.38;100044.97;5057574;28;50487;-74
2023/03/13 05:52:35;;;;;;;;;6.00;5.00;;;;;13.89;77.06;100044.41;5073666;28;45589;-74
2023/03/13 05:55:01;;;;;;;;;7.00;6.00;;;;;14.05;77.33;100078.16;5058358;28;45435;-73
2023/03/13 05:57:26;;;;;;;;;6.00;6.00;;;;;13.71;77.55;100022.56;5073702;28;45389;-75
2023/03/13 05:59:51;;;;;;;;;11.00;7.67;;;;;14.07;77.37;100065.44;5056242;28;48055;-74
2023/03/13 06:02:17;;;;;;;;;8.67;8.67;;;;;13.01;77.57;99906.19;5057229;28;45313;-75
2023/03/13 06:04:42;;;;;;;;;9.00;6.67;;;;;14.03;77.38;100050.78;5073126;28;45508;-74
2023/03/13 06:07:07;;;;;;;;;9.67;7.33;;;;;13.68;77.46;100001.56;5056337;28;45311;-74
2023/03/13 06:09:33;;;;;;;;;7.33;7.33;;;;;13.48;77.80;99963.84;5057039;28;46746;-76
2023/03/13 06:11:58;;;;;;;;;8.67;7.33;;;;;13.96;77.97;100055.19;5074949;28;46141;-74
2023/03/13 06:14:24;;;;;;;;;8.67;7.00;;;;;13.97;77.87;100054.19;5060651;28;45336;-74
2023/03/13 06:16:49;;;;;;;;;7.67;7.67;;;;;13.63;77.83;99978.06;5073550;28;45481;-75
2023/03/13 06:19:15;;;;;;;;;5.00;5.00;;;;;13.85;78.33;100023.59;5055755;28;47393;-75
2023/03/13 06:21:41;;;;;;;;;6.00;6.00;;;;;13.46;78.65;99965.88;5057115;28;45435;-74
2023/03/13 06:24:06;;;;;;;;;10.67;7.33;;;;;13.95;79.20;100040.19;5057354;28;45374;-74
2023/03/13 06:26:31;;;;;;;;;8.00;6.33;;;;;13.67;79.52;100003.41;5057550;28;45376;-74
2023/03/13 06:28:57;;;;;;;;;8.00;5.00;;;;;13.71;79.78;100017.22;5057150;28;46648;-75
2023/03/13 06:31:23;;;;;;;;;8.67;7.00;;;;;13.90;79.52;100037.22;5072719;28;45514;-75
2023/03/13 06:33:52;;;;;;;;;7.00;6.00;;;;;13.87;79.82;100026.91;5055873;28;45427;-74
2023/03/13 06:36:17;;;;;;;;;6.33;6.33;;;;;13.94;79.18;100038.50;5057378;28;45314;-75
2023/03/13 06:38:43;;;;;;;;;7.67;5.33;;;;;13.92;79.19;100036.03;5057853;28;55394;-76
2023/03/13 06:41:08;;;;;;;;;6.67;4.67;;;;;13.90;79.39;100034.56;5057211;28;45312;-75
2023/03/13 06:43:34;;;;;;;;;7.00;6.00;;;;;13.73;79.90;100009.00;5054436;28;45284;-76
2023/03/13 06:46:03;;;;;;;;;8.00;6.00;;;;;13.86;79.79;100019.91;5065794;28;45499;-76
2023/03/13 06:48:29;;;;;;;;;8.00;8.00;;;;;13.93;79.67;100031.50;5077459;28;46813;-76
2023/03/13 06:50:55;;;;;;;;;8.67;7.33;;;;;13.94;79.86;100043.88;5076812;28;54180;-74
2023/03/13 06:53:20;;;;;;;;;6.00;6.00;;;;;13.55;79.88;99956.75;5077245;28;45230;-75
2023/03/13 06:55:47;;;;;;;;;5.00;5.00;;;;;13.82;79.73;99994.56;5077345;28;45299;-74
2023/03/13 06:58:13;;;;;;;;;9.00;7.67;;;;;13.79;79.69;99993.06;5075887;28;46441;-75
2023/03/13 07:00:41;;;;;;;;;8.67;8.67;;;;;13.99;79.17;100020.91;5069493;28;45417;-75
2023/03/13 07:03:06;;;;;;;;;8.00;8.00;;;;;13.55;79.60;99947.91;5072562;28;45364;-76
2023/03/13 07:05:32;;;;;;;;;3.67;3.67;;;;;13.21;79.33;99892.34;5057037;28;45486;-76
2023/03/13 07:08:00;;;;;;;;;8.67;7.67;;;;;13.97;79.14;100006.06;5056957;28;45343;-75
2023/03/13 07:10:25;;;;;;;;;7.67;7.67;;;;;13.98;79.54;100010.41;5055933;28;45243;-76
2023/03/13 07:12:51;;;;;;;;;5.00;5.00;;;;;13.34;79.46;99908.56;5057409;28;45423;-74
2023/03/13 07:15:16;;;;;;;;;10.33;8.00;;;;;13.59;79.76;99942.03;5058150;28;45246;-75
2023/03/13 07:17:41;;;;;;;;;7.00;7.00;;;;;12.13;79.76;99704.13;5056911;28;46493;-74
2023/03/13 07:20:09;;;;;;;;;5.33;5.33;;;;;13.76;79.89;99966.72;5071943;28;54005;-75
2023/03/13 07:22:35;;;;;;;;;8.00;8.00;;;;;13.94;79.63;99985.06;5072632;28;45356;-76
2023/03/13 07:25:01;;;;;;;;;9.33;7.67;;;;;14.12;79.59;99998.91;5058143;28;45545;-77
2023/03/13 07:27:26;;;;;;;;;6.00;6.00;;;;;14.11;79.64;100007.94;5055922;28;45591;-76
2023/03/13 07:29:52;;;;;;;;;9.33;9.00;;;;;13.70;79.29;99932.75;5054323;28;45428;-74
2023/03/13 07:32:17;;;;;;;;;8.00;8.00;;;;;14.06;78.98;99988.13;5057416;28;50201;-77
2023/03/13 07:34:43;;;;;;;;;6.33;6.33;;;;;14.21;79.03;99996.94;5060291;28;45275;-75
2023/03/13 07:37:10;;;;;;;;;6.00;6.00;;;;;14.09;78.89;99977.88;5059740;28;46265;-75
2023/03/13 07:39:35;;;;;;;;;5.67;5.67;;;;;14.21;78.71;99984.41;5059710;28;45271;-75
2023/03/13 07:42:01;;;;;;;;;7.00;7.00;;;;;14.07;78.61;99953.19;5059450;28;45469;-75
2023/03/13 07:44:26;;;;;;;;;7.33;6.00;;;;;14.13;78.55;99962.31;5070159;28;48933;-76
2023/03/13 07:46:51;;;;;;;;;6.33;6.33;;;;;14.22;78.35;99972.72;5080049;28;45455;-74
2023/03/13 07:49:17;;;;;;;;;7.67;6.67;;;;;14.12;78.02;99966.81;5079219;28;45411;-75
2023/03/13 07:51:43;;;;;;;;;7.67;5.33;;;;;13.28;78.46;99823.91;5080036;28;45714;-78
2023/03/13 07:54:08;;;;;;;;;6.33;6.33;;;;;14.24;78.62;99981.38;5078679;28;45528;-75
2023/03/13 07:56:34;;;;;;;;;5.00;4.67;;;;;14.29;78.53;99973.63;5080276;28;45494;-77
2023/03/13 07:58:59;;;;;;;;;6.00;6.00;;;;;14.20;78.56;99949.84;5084203;28;45469;-77
2023/03/13 08:01:26;;;;;;;;;12.00;8.67;;;;;13.87;78.31;99895.97;5062222;28;45552;-76
2023/03/13 08:03:55;;;;;;;;;9.33;8.00;;;;;13.91;78.21;99899.94;5062386;28;45566;-76
2023/03/13 08:06:22;;;;;;;;;10.00;8.33;;;;;13.46;77.83;99815.53;5062398;28;46727;-77
2023/03/13 08:08:49;;;;;;;;;7.67;5.67;;;;;14.30;78.09;99969.94;5076937;28;45409;-75
2023/03/13 08:11:20;;;;;;;;;9.67;6.33;;;;;14.35;77.79;99971.22;5076327;28;45531;-76
2023/03/13 08:13:46;;;;;;;;;9.00;8.67;;;;;14.03;77.63;99909.16;5078043;28;45402;-75
2023/03/13 08:16:20;;;;;;;;;7.33;7.33;;;;;14.09;77.25;99915.59;5079694;28;46315;-77
2023/03/13 08:18:48;;;;;;;;;9.33;7.33;;;;;13.93;77.08;99871.19;5077977;28;45411;-77
2023/03/13 08:21:23;;;;;;;;;6.33;5.00;;;;;13.68;76.78;99822.59;5044612;28;45527;-76
2023/03/13 08:23:52;;;;;;;;;7.00;6.00;;;;;14.31;76.82;99922.63;5060628;27;45603;-76
2023/03/13 08:26:20;;;;;;;;;4.33;4.33;;;;;14.07;77.06;99880.19;5063410;28;45483;-76
2023/03/13 08:28:47;;;;;;;;;7.33;7.33;;;;;14.42;76.79;99915.97;5072178;28;45345;-77
2023/03/13 08:31:18;;;;;;;;;7.00;7.00;;;;;14.28;76.70;99913.16;5058779;28;45480;-76
2023/03/13 08:33:45;;;;;;;;;5.00;5.00;;;;;14.51;76.66;99929.06;5068085;28;45353;-75
2023/03/13 08:36:17;;;;;;;;;7.00;5.67;;;;;14.52;77.02;99932.56;5059380;28;47745;-77
2023/03/13 08:38:44;;;;;;;;;7.67;6.33;;;;;14.56;76.40;99932.00;5077627;28;46073;-77
2023/03/13 08:41:11;;;;;;;;;6.67;5.33;;;;;13.89;76.19;99803.94;5078994;28;45202;-76
2023/03/13 08:43:37;;;;;;;;;7.67;6.67;;;;;14.66;75.96;99909.47;5077116;28;45591;-77
2023/03/13 08:46:03;;;;;;;;;7.00;6.00;;;;;14.72;75.65;99922.06;5059256;28;48194;-75
2023/03/13 08:48:28;;;;;;;;;8.00;8.00;;;;;14.64;75.87;99906.16;5072743;28;45441;-75
2023/03/13 08:51:04;;;;;;;;;6.00;6.00;;;;;14.70;75.51;99908.88;5074174;28;45422;-76
2023/03/13 08:53:31;;;;;;;;;5.67;4.67;;;;;14.22;75.50;99839.06;5073561;28;45645;-76
2023/03/13 08:55:57;;;;;;;;;6.00;6.00;;;;;14.51;75.33;99858.69;5078590;28;45654;-75
2023/03/13 08:58:23;;;;;;;;;6.00;6.00;;;;;14.60;76.08;99913.72;5079263;28;45350;-75
2023/03/13 09:00:48;;;;;;;;;5.00;5.00;;;;;14.20;75.86;99841.06;5075932;28;45507;-74
2023/03/13 09:03:14;;;;;;;;;5.67;5.33;;;;;14.70;75.98;99905.38;5077349;28;45194;-76
2023/03/13 09:05:39;;;;;;;;;9.33;5.33;;;;;14.75;75.63;99903.78;5062414;28;48639;-76
2023/03/13 09:08:05;;;;;;;;;5.33;3.67;;;;;14.75;75.54;99879.69;5079464;28;45205;-75
2023/03/13 09:10:34;;;;;;;;;4.00;4.00;;;;;14.53;75.56;99846.78;5077509;28;45493;-76
2023/03/13 09:13:00;;;;;;;;;5.67;5.67;;;;;14.14;75.93;99761.63;5078004;28;45355;-77
2023/03/13 09:15:26;;;;;;;;;6.00;6.00;;;;;14.88;76.50;99871.81;5059078;28;47225;-76
2023/03/13 09:17:52;;;;;;;;;5.33;5.33;;;;;14.84;76.25;99849.13;5078077;27;45378;-76
2023/03/13 09:20:20;;;;;;;;;5.00;4.00;;;;;14.99;75.76;99853.53;5069527;28;45486;-75
2023/03/13 09:22:45;;;;;;;;;6.00;6.00;;;;;15.09;76.16;99867.44;5059077;28;45621;-77
2023/03/13 09:25:12;;;;;;;;;9.00;5.67;;;;;14.73;75.72;99792.63;5078030;28;46517;-75
2023/03/13 09:27:38;;;;;;;;;8.00;6.33;;;;;14.81;75.53;99798.66;5079078;28;45545;-77
2023/03/13 09:30:04;;;;;;;;;5.67;3.33;;;;;15.00;75.76;99849.84;5080267;28;45458;-77
2023/03/13 09:32:29;;;;;;;;;6.67;6.67;;;;;15.06;75.76;99841.06;5072569;28;45515;-76
2023/03/13 09:34:54;;;;;;;;;7.67;6.00;;;;;15.06;75.50;99835.69;5059900;28;47235;-74
2023/03/13 09:37:20;;;;;;;;;6.67;5.00;;;;;14.67;75.27;99786.22;5051600;28;45412;-76
2023/03/13 09:39:47;;;;;;;;;7.00;6.00;;;;;14.78;75.29;99796.38;5069504;28;45494;-75
2023/03/13 09:42:23;;;;;;;;;9.33;6.00;;;;;15.04;75.19;99835.06;5076930;28;45380;-76
2023/03/13 09:44:58;;;;;;;;;5.33;4.33;;;;;15.09;75.32;99833.47;5079637;28;46130;-77
2023/03/13 09:47:41;;;;;;;;;8.00;6.67;;;;;14.58;74.34;99737.34;5078034;28;45508;-78
2023/03/13 09:50:26;;;;;;;;;5.00;2.00;;;;;15.12;74.03;99808.13;5039626;28;45321;-77
2023/03/13 09:52:56;;;;;;;;;5.00;4.00;;;;;15.32;74.08;99822.47;5067377;28;45560;-79
2023/03/13 09:55:27;;;;;;;;;6.33;5.00;;;;;15.32;73.68;99801.06;5059391;28;48631;-77
2023/03/13 09:57:58;;;;;;;;;15.67;11.33;;;;;15.33;74.16;99808.06;5077557;28;45502;-78
2023/03/13 10:00:26;;;;;;;;;5.33;5.33;;;;;15.37;74.36;99811.16;5070890;28;45612;-75
2023/03/13 10:02:59;;;;;;;;;5.00;5.00;;;;;15.45;74.20;99808.34;5071870;28;45382;-76
2023/03/13 10:05:27;;;;;;;;;10.33;5.67;;;;;15.21;73.45;99756.06;5070171;27;45945;-76
2023/03/13 10:08:21;;;;;;;;;8.00;5.00;;;;;15.60;72.68;99806.38;5076425;28;45360;-75
2023/03/13 10:11:02;;;;;;;;;7.67;6.00;;;;;14.42;71.83;99582.53;5075282;28;45270;-77
2023/03/13 10:13:40;;;;;;;;;8.33;3.00;;;;;15.84;71.83;99794.31;5058096;28;45519;-76
2023/03/13 10:16:19;;;;;;;;;7.00;4.00;;;;;15.63;70.92;99744.38;5074094;28;47154;-75
2023/03/13 10:18:47;;;;;;;;;4.00;2.00;;;;;16.02;70.33;99780.34;5058812;28;45571;-75
2023/03/13 10:21:18;;;;;;;;;7.33;6.00;;;;;15.30;69.48;99645.09;5060718;28;45342;-74
2023/03/13 10:23:53;;;;;;;;;4.00;4.00;;;;;16.16;69.23;99783.88;5075271;28;45825;-76
2023/03/13 10:26:23;;;;;;;;;11.00;5.00;;;;;15.91;68.72;99725.47;5073790;28;46226;-75
2023/03/13 10:28:50;;;;;;;;;64.00;40.67;;;;;16.30;69.26;99796.28;5077078;28;45563;-76
2023/03/13 10:31:24;;;;;;;;;12.33;4.67;;;;;16.35;69.10;99769.66;5075062;28;45549;-77
2023/03/13 10:33:50;;;;;;;;;3.00;3.00;;;;;16.39;68.63;99761.00;5075792;28;45427;-77
2023/03/13 10:36:15;;;;;;;;;4.00;4.00;;;;;16.58;68.18;99766.56;5076540;27;45675;-76
2023/03/13 10:38:52;;;;;;;;;7.33;4.67;;;;;16.36;67.83;99720.34;5055092;28;45993;-75
2023/03/13 10:41:32;;;;;;;;;3.33;2.67;;;;;16.55;67.66;99738.28;5069182;28;45423;-77
2023/03/13 10:44:05;;;;;;;;;4.00;1.33;;;;;16.69;67.21;99756.09;5076994;28;45427;-77
2023/03/13 10:46:33;;;;;;;;;5.00;3.33;;;;;16.77;67.56;99762.25;5064584;28;45382;-76
2023/03/13 10:49:03;;;;;;;;;24.00;15.33;;;;;16.72;67.05;99719.94;5077185;28;45490;-77
2023/03/13 10:51:38;;;;;;;;;3.00;2.00;;;;;17.18;66.51;99768.16;5077711;28;45248;-76
2023/03/13 10:54:16;;;;;;;;;2.00;2.00;;;;;17.06;65.11;99716.16;5076622;28;45347;-80
2023/03/13 10:56:42;;;;;;;;;3.00;2.00;;;;;17.27;65.12;99756.19;5061572;28;47948;-78
2023/03/13 10:59:23;;;;;;;;;3.67;3.00;;;;;16.41;64.86;99605.19;5076823;28;46084;-76
2023/03/13 11:01:50;;;;;;;;;7.33;5.67;;;;;17.14;64.04;99696.28;5078193;28;45459;-76
2023/03/13 11:04:37;;;;;;;;;7.33;5.67;;;;;17.16;64.10;99676.25;5039533;28;45305;-77
2023/03/13 11:07:40;;;;;;;;;4.00;1.33;;;;;16.86;63.93;99621.44;5068188;28;46253;-74
2023/03/13 11:10:20;;;;;;;;;11.00;10.00;;;;;17.64;63.54;99740.31;4960709;28;45387;-77
2023/03/13 11:12:54;;;;;;;;;4.00;2.33;;;;;17.80;63.32;99729.09;5050628;28;45482;-76
2023/03/13 11:15:29;;;;;;;;;3.00;3.00;;;;;17.07;63.09;99605.03;5081630;28;45489;-75
2023/03/13 11:18:04;;;;;;;;;3.00;3.00;;;;;17.21;62.39;99649.56;5081477;28;46670;-77
2023/03/13 11:20:33;;;;;;;;;4.67;3.67;;;;;17.72;62.31;99737.41;5062396;28;45488;-76
2023/03/13 11:23:14;;;;;;;;;12.67;10.00;;;;;17.83;62.05;99736.75;5073537;28;45604;-76
2023/03/13 11:26:06;;;;;;;;;2.67;2.67;;;;;17.92;61.85;99738.13;5073695;28;45415;-76
2023/03/13 11:28:47;;;;;;;;;2.67;2.00;;;;;17.98;60.90;99735.59;5062148;28;47961;-75
2023/03/13 11:31:59;;;;;;;;;5.00;4.00;;;;;17.70;59.75;99719.84;5073764;28;45515;-76
2023/03/13 11:34:46;;;;;;;;;3.67;2.33;;;;;17.66;59.17;99721.28;5000605;28;45334;-77